sensor_id;sensor_type;location;lat;lon;timestamp;temperature;humidity
12470;DHT22;36499;46.484;13.832;2022-08-11T00:02:33;13.10;99.90
12470;DHT22;36499;46.484;13.832;2022-08-11T00:05:05;13.10;99.90
12470;DHT22;36499;46.484;13.832;2022-08-11T00:07:42;13.10;99.90
12470;DHT22;36499;46.484;13.832;2022-08-11T00:10:12;13.10;99.90
12470;DHT22;36499;46.484;13.832;2022-08-11T00:12:43;13.10;99.90
12470;DHT22;36499;46.484;13.832;2022-08-11T00:15:16;13.20;99.90
12470;DHT22;36499;46.484;13.832;2022-08-11T00:17:44;13.10;99.90
12470;DHT22;36499;46.484;13.832;2022-08-11T00:20:13;13.10;99.90
12470;DHT22;36499;46.484;13.832;2022-08-11T00:22:46;13.00;99.90
12470;DHT22;36499;46.484;13.832;2022-08-11T00:25:16;13.00;99.90
12470;DHT22;36499;46.484;13.832;2022-08-11T00:27:47;12.90;99.90
12470;DHT22;36499;46.484;13.832;2022-08-11T00:30:15;12.90;99.90
12470;DHT22;36499;46.484;13.832;2022-08-11T00:32:44;12.80;99.90
12470;DHT22;36499;46.484;13.832;2022-08-11T00:35:25;12.80;99.90
12470;DHT22;36499;46.484;13.832;2022-08-11T00:37:56;12.80;99.90
12470;DHT22;36499;46.484;13.832;2022-08-11T00:40:32;12.80;99.90
12470;DHT22;36499;46.484;13.832;2022-08-11T00:43:16;12.80;99.90
12470;DHT22;36499;46.484;13.832;2022-08-11T00:46:08;12.70;99.90
12470;DHT22;36499;46.484;13.832;2022-08-11T00:48:58;12.60;99.90
12470;DHT22;36499;46.484;13.832;2022-08-11T00:51:42;12.50;99.90
12470;DHT22;36499;46.484;13.832;2022-08-11T00:54:31;12.50;99.90
12470;DHT22;36499;46.484;13.832;2022-08-11T01:01:04;12.50;99.90
12470;DHT22;36499;46.484;13.832;2022-08-11T01:03:58;12.50;99.90
12470;DHT22;36499;46.484;13.832;2022-08-11T01:10:36;12.50;99.90
12470;DHT22;36499;46.484;13.832;2022-08-11T01:13:57;12.50;99.90
12470;DHT22;36499;46.484;13.832;2022-08-11T01:20:22;12.40;99.90
12470;DHT22;36499;46.484;13.832;2022-08-11T01:23:58;12.30;99.90
12470;DHT22;36499;46.484;13.832;2022-08-11T01:47:37;12.10;99.90
12470;DHT22;36499;46.484;13.832;2022-08-11T01:50:36;12.10;99.90
12470;DHT22;36499;46.484;13.832;2022-08-11T01:53:24;12.20;99.90
12470;DHT22;36499;46.484;13.832;2022-08-11T01:56:09;12.20;99.90
12470;DHT22;36499;46.484;13.832;2022-08-11T01:58:57;12.10;99.90
12470;DHT22;36499;46.484;13.832;2022-08-11T02:01:44;12.00;99.90
12470;DHT22;36499;46.484;13.832;2022-08-11T02:04:32;11.90;99.90
12470;DHT22;36499;46.484;13.832;2022-08-11T02:07:09;11.90;99.90
12470;DHT22;36499;46.484;13.832;2022-08-11T02:10:08;11.90;99.90
12470;DHT22;36499;46.484;13.832;2022-08-11T02:13:06;11.90;99.90
12470;DHT22;36499;46.484;13.832;2022-08-11T02:15:44;11.90;99.90
12470;DHT22;36499;46.484;13.832;2022-08-11T02:18:20;11.90;99.90
12470;DHT22;36499;46.484;13.832;2022-08-11T02:21:15;11.80;99.90
12470;DHT22;36499;46.484;13.832;2022-08-11T02:24:15;11.80;99.90
12470;DHT22;36499;46.484;13.832;2022-08-11T02:26:55;11.80;99.90
12470;DHT22;36499;46.484;13.832;2022-08-11T02:29:32;11.80;99.90
12470;DHT22;36499;46.484;13.832;2022-08-11T02:32:17;11.80;99.90
12470;DHT22;36499;46.484;13.832;2022-08-11T02:35:13;11.80;99.90
12470;DHT22;36499;46.484;13.832;2022-08-11T02:38:04;11.80;99.90
12470;DHT22;36499;46.484;13.832;2022-08-11T02:40:43;11.80;99.90
12470;DHT22;36499;46.484;13.832;2022-08-11T02:43:27;11.90;99.90
12470;DHT22;36499;46.484;13.832;2022-08-11T02:46:17;11.80;99.90
12470;DHT22;36499;46.484;13.832;2022-08-11T02:48:55;11.70;99.90
12470;DHT22;36499;46.484;13.832;2022-08-11T02:51:58;11.70;99.90
12470;DHT22;36499;46.484;13.832;2022-08-11T02:54:41;11.70;99.90
12470;DHT22;36499;46.484;13.832;2022-08-11T02:57:20;11.60;99.90
12470;DHT22;36499;46.484;13.832;2022-08-11T02:59:58;11.50;99.90
12470;DHT22;36499;46.484;13.832;2022-08-11T03:02:50;11.50;99.90
12470;DHT22;36499;46.484;13.832;2022-08-11T03:06:03;11.60;99.90
12470;DHT22;36499;46.484;13.832;2022-08-11T03:08:50;11.40;99.90
12470;DHT22;36499;46.484;13.832;2022-08-11T03:11:42;11.40;99.90
12470;DHT22;36499;46.484;13.832;2022-08-11T03:14:44;11.50;99.90
12470;DHT22;36499;46.484;13.832;2022-08-11T03:17:36;11.50;99.90
12470;DHT22;36499;46.484;13.832;2022-08-11T03:20:19;11.50;99.90
12470;DHT22;36499;46.484;13.832;2022-08-11T03:23:02;11.50;99.90
12470;DHT22;36499;46.484;13.832;2022-08-11T03:25:44;11.40;99.90
12470;DHT22;36499;46.484;13.832;2022-08-11T03:28:26;11.40;99.90
12470;DHT22;36499;46.484;13.832;2022-08-11T03:31:09;11.30;99.90
12470;DHT22;36499;46.484;13.832;2022-08-11T03:33:53;11.30;99.90
12470;DHT22;36499;46.484;13.832;2022-08-11T03:37:10;11.30;99.90
12470;DHT22;36499;46.484;13.832;2022-08-11T03:40:19;11.30;99.90
12470;DHT22;36499;46.484;13.832;2022-08-11T03:43:30;11.10;99.90
12470;DHT22;36499;46.484;13.832;2022-08-11T03:46:15;11.10;99.90
12470;DHT22;36499;46.484;13.832;2022-08-11T03:48:58;11.10;99.90
12470;DHT22;36499;46.484;13.832;2022-08-11T03:51:44;11.10;99.90
12470;DHT22;36499;46.484;13.832;2022-08-11T03:54:27;11.10;99.90
12470;DHT22;36499;46.484;13.832;2022-08-11T04:00:55;11.00;99.90
12470;DHT22;36499;46.484;13.832;2022-08-11T04:11:15;11.00;99.90
12470;DHT22;36499;46.484;13.832;2022-08-11T04:14:22;11.00;99.90
12470;DHT22;36499;46.484;13.832;2022-08-11T04:20:54;11.00;99.90
12470;DHT22;36499;46.484;13.832;2022-08-11T04:23:55;11.00;99.90
12470;DHT22;36499;46.484;13.832;2022-08-11T04:30:02;11.00;99.90
12470;DHT22;36499;46.484;13.832;2022-08-11T04:33:33;11.00;99.90
12470;DHT22;36499;46.484;13.832;2022-08-11T04:36:34;11.00;99.90
12470;DHT22;36499;46.484;13.832;2022-08-11T04:39:46;11.00;99.90
12470;DHT22;36499;46.484;13.832;2022-08-11T04:46:32;11.10;99.90
12470;DHT22;36499;46.484;13.832;2022-08-11T04:49:37;11.10;99.90
12470;DHT22;36499;46.484;13.832;2022-08-11T04:53:04;11.20;99.90
12470;DHT22;36499;46.484;13.832;2022-08-11T04:56:08;11.20;99.90
12470;DHT22;36499;46.484;13.832;2022-08-11T04:59:22;11.30;99.90
12470;DHT22;36499;46.484;13.832;2022-08-11T05:09:24;11.30;99.90
12470;DHT22;36499;46.484;13.832;2022-08-11T05:12:08;11.30;99.90
12470;DHT22;36499;46.484;13.832;2022-08-11T05:14:50;11.30;99.90
12470;DHT22;36499;46.484;13.832;2022-08-11T05:17:38;11.30;99.90
12470;DHT22;36499;46.484;13.832;2022-08-11T05:20:24;11.40;99.90
12470;DHT22;36499;46.484;13.832;2022-08-11T05:23:11;11.40;99.90
12470;DHT22;36499;46.484;13.832;2022-08-11T05:26:01;11.50;99.90
12470;DHT22;36499;46.484;13.832;2022-08-11T05:29:00;11.60;99.90
12470;DHT22;36499;46.484;13.832;2022-08-11T05:31:54;11.80;99.90
12470;DHT22;36499;46.484;13.832;2022-08-11T05:34:43;12.00;99.90
12470;DHT22;36499;46.484;13.832;2022-08-11T05:37:22;12.20;99.90
12470;DHT22;36499;46.484;13.832;2022-08-11T05:40:04;12.30;99.90
12470;DHT22;36499;46.484;13.832;2022-08-11T05:42:55;12.50;99.90
12470;DHT22;36499;46.484;13.832;2022-08-11T05:45:42;12.70;99.90
12470;DHT22;36499;46.484;13.832;2022-08-11T05:48:33;12.90;99.90
12470;DHT22;36499;46.484;13.832;2022-08-11T05:51:19;13.00;99.90
12470;DHT22;36499;46.484;13.832;2022-08-11T05:54:08;13.20;99.90
12470;DHT22;36499;46.484;13.832;2022-08-11T05:56:55;13.40;99.90
12470;DHT22;36499;46.484;13.832;2022-08-11T05:59:26;13.60;99.90
12470;DHT22;36499;46.484;13.832;2022-08-11T06:01:59;13.70;99.90
12470;DHT22;36499;46.484;13.832;2022-08-11T06:04:28;13.90;99.90
12470;DHT22;36499;46.484;13.832;2022-08-11T06:07:00;14.00;99.90
12470;DHT22;36499;46.484;13.832;2022-08-11T06:09:31;14.20;99.90
12470;DHT22;36499;46.484;13.832;2022-08-11T06:12:05;14.30;99.90
12470;DHT22;36499;46.484;13.832;2022-08-11T06:14:41;14.50;99.90
12470;DHT22;36499;46.484;13.832;2022-08-11T06:17:11;14.70;99.90
12470;DHT22;36499;46.484;13.832;2022-08-11T06:19:41;14.80;99.90
12470;DHT22;36499;46.484;13.832;2022-08-11T06:22:18;15.00;99.90
12470;DHT22;36499;46.484;13.832;2022-08-11T06:24:52;15.20;99.90
12470;DHT22;36499;46.484;13.832;2022-08-11T06:27:23;15.30;99.90
12470;DHT22;36499;46.484;13.832;2022-08-11T06:29:53;15.50;99.90
12470;DHT22;36499;46.484;13.832;2022-08-11T06:32:25;15.60;99.90
12470;DHT22;36499;46.484;13.832;2022-08-11T06:35:13;15.80;99.90
12470;DHT22;36499;46.484;13.832;2022-08-11T06:38:01;16.00;99.90
12470;DHT22;36499;46.484;13.832;2022-08-11T06:40:36;16.20;99.90
12470;DHT22;36499;46.484;13.832;2022-08-11T06:43:14;16.40;99.90
12470;DHT22;36499;46.484;13.832;2022-08-11T06:45:52;16.60;99.90
12470;DHT22;36499;46.484;13.832;2022-08-11T06:48:30;16.70;99.90
12470;DHT22;36499;46.484;13.832;2022-08-11T06:51:03;16.90;99.90
12470;DHT22;36499;46.484;13.832;2022-08-11T06:53:42;17.00;99.90
12470;DHT22;36499;46.484;13.832;2022-08-11T06:56:12;17.20;99.90
12470;DHT22;36499;46.484;13.832;2022-08-11T06:59:00;17.30;99.90
12470;DHT22;36499;46.484;13.832;2022-08-11T07:02:02;17.40;99.90
12470;DHT22;36499;46.484;13.832;2022-08-11T07:04:40;17.60;99.90
12470;DHT22;36499;46.484;13.832;2022-08-11T07:11:00;17.90;99.90
12470;DHT22;36499;46.484;13.832;2022-08-11T07:14:10;18.10;99.90
12470;DHT22;36499;46.484;13.832;2022-08-11T07:17:04;18.30;99.90
12470;DHT22;36499;46.484;13.832;2022-08-11T07:19:36;18.50;99.90
12470;DHT22;36499;46.484;13.832;2022-08-11T07:22:28;18.60;99.90
12470;DHT22;36499;46.484;13.832;2022-08-11T07:25:31;18.80;99.90
12470;DHT22;36499;46.484;13.832;2022-08-11T07:28:23;19.00;99.90
12470;DHT22;36499;46.484;13.832;2022-08-11T07:31:12;19.10;99.90
12470;DHT22;36499;46.484;13.832;2022-08-11T07:33:49;19.30;99.90
12470;DHT22;36499;46.484;13.832;2022-08-11T07:36:20;19.40;99.90
12470;DHT22;36499;46.484;13.832;2022-08-11T07:38:52;19.50;99.90
12470;DHT22;36499;46.484;13.832;2022-08-11T07:41:22;19.70;99.90
12470;DHT22;36499;46.484;13.832;2022-08-11T07:43:56;19.80;99.90
12470;DHT22;36499;46.484;13.832;2022-08-11T07:46:35;20.00;99.90
12470;DHT22;36499;46.484;13.832;2022-08-11T07:49:37;20.20;99.90
12470;DHT22;36499;46.484;13.832;2022-08-11T07:52:27;20.30;99.90
12470;DHT22;36499;46.484;13.832;2022-08-11T07:54:59;20.50;99.90
12470;DHT22;36499;46.484;13.832;2022-08-11T07:57:30;20.70;99.90
12470;DHT22;36499;46.484;13.832;2022-08-11T08:00:17;20.90;99.90
12470;DHT22;36499;46.484;13.832;2022-08-11T08:03:04;21.20;99.90
12470;DHT22;36499;46.484;13.832;2022-08-11T08:05:52;21.30;99.90
12470;DHT22;36499;46.484;13.832;2022-08-11T08:08:39;21.60;99.90
12470;DHT22;36499;46.484;13.832;2022-08-11T08:11:25;21.80;99.90
12470;DHT22;36499;46.484;13.832;2022-08-11T08:14:11;21.80;99.90
12470;DHT22;36499;46.484;13.832;2022-08-11T08:16:56;22.00;99.90
12470;DHT22;36499;46.484;13.832;2022-08-11T08:19:42;22.20;98.40
12470;DHT22;36499;46.484;13.832;2022-08-11T08:22:19;22.20;96.50
12470;DHT22;36499;46.484;13.832;2022-08-11T08:24:48;22.20;97.00
12470;DHT22;36499;46.484;13.832;2022-08-11T08:27:16;22.40;98.20
12470;DHT22;36499;46.484;13.832;2022-08-11T08:29:45;22.70;99.90
12470;DHT22;36499;46.484;13.832;2022-08-11T08:32:31;22.80;96.10
12470;DHT22;36499;46.484;13.832;2022-08-11T08:35:04;23.10;96.30
12470;DHT22;36499;46.484;13.832;2022-08-11T08:37:34;23.30;93.00
12470;DHT22;36499;46.484;13.832;2022-08-11T08:40:02;23.50;92.10
12470;DHT22;36499;46.484;13.832;2022-08-11T08:42:36;23.50;91.00
12470;DHT22;36499;46.484;13.832;2022-08-11T08:45:10;23.50;84.80
12470;DHT22;36499;46.484;13.832;2022-08-11T08:47:41;23.70;87.70
12470;DHT22;36499;46.484;13.832;2022-08-11T08:50:14;23.80;84.00
12470;DHT22;36499;46.484;13.832;2022-08-11T08:52:51;23.80;84.10
12470;DHT22;36499;46.484;13.832;2022-08-11T08:55:21;24.00;80.00
12470;DHT22;36499;46.484;13.832;2022-08-11T08:57:51;24.10;79.30
12470;DHT22;36499;46.484;13.832;2022-08-11T09:00:21;24.20;80.20
12470;DHT22;36499;46.484;13.832;2022-08-11T09:02:50;24.20;76.90
12470;DHT22;36499;46.484;13.832;2022-08-11T09:05:18;24.30;78.80
12470;DHT22;36499;46.484;13.832;2022-08-11T09:07:49;24.30;77.10
12470;DHT22;36499;46.484;13.832;2022-08-11T09:10:22;24.50;77.80
12470;DHT22;36499;46.484;13.832;2022-08-11T09:12:52;24.70;74.40
12470;DHT22;36499;46.484;13.832;2022-08-11T09:15:20;24.70;73.10
12470;DHT22;36499;46.484;13.832;2022-08-11T09:17:51;24.80;74.70
12470;DHT22;36499;46.484;13.832;2022-08-11T09:20:32;25.00;74.60
12470;DHT22;36499;46.484;13.832;2022-08-11T09:23:04;25.20;72.20
12470;DHT22;36499;46.484;13.832;2022-08-11T09:25:54;25.40;73.90
12470;DHT22;36499;46.484;13.832;2022-08-11T09:28:42;25.40;70.60
12470;DHT22;36499;46.484;13.832;2022-08-11T09:31:11;25.50;70.80
12470;DHT22;36499;46.484;13.832;2022-08-11T09:33:40;25.50;69.00
12470;DHT22;36499;46.484;13.832;2022-08-11T09:36:11;25.60;71.80
12470;DHT22;36499;46.484;13.832;2022-08-11T09:38:59;25.60;69.10
12470;DHT22;36499;46.484;13.832;2022-08-11T09:41:46;25.60;66.20
12470;DHT22;36499;46.484;13.832;2022-08-11T09:44:15;25.60;68.80
12470;DHT22;36499;46.484;13.832;2022-08-11T09:47:00;25.60;65.90
12470;DHT22;36499;46.484;13.832;2022-08-11T09:49:31;25.80;67.80
12470;DHT22;36499;46.484;13.832;2022-08-11T09:51:59;26.00;68.30
12470;DHT22;36499;46.484;13.832;2022-08-11T09:54:35;26.10;66.30
12470;DHT22;36499;46.484;13.832;2022-08-11T09:57:04;26.20;68.20
12470;DHT22;36499;46.484;13.832;2022-08-11T09:59:51;26.10;62.90
12470;DHT22;36499;46.484;13.832;2022-08-11T10:02:24;26.20;65.80
12470;DHT22;36499;46.484;13.832;2022-08-11T10:04:55;26.30;64.60
12470;DHT22;36499;46.484;13.832;2022-08-11T10:07:45;26.30;65.30
12470;DHT22;36499;46.484;13.832;2022-08-11T10:10:19;26.50;68.50
12470;DHT22;36499;46.484;13.832;2022-08-11T10:12:52;26.60;63.90
12470;DHT22;36499;46.484;13.832;2022-08-11T10:15:25;26.60;65.70
12470;DHT22;36499;46.484;13.832;2022-08-11T10:18:05;26.60;65.60
12470;DHT22;36499;46.484;13.832;2022-08-11T10:20:56;26.70;60.00
12470;DHT22;36499;46.484;13.832;2022-08-11T10:23:27;26.60;65.80
12470;DHT22;36499;46.484;13.832;2022-08-11T10:26:17;26.80;64.70
12470;DHT22;36499;46.484;13.832;2022-08-11T10:29:05;27.00;65.20
12470;DHT22;36499;46.484;13.832;2022-08-11T10:31:54;27.10;64.20
12470;DHT22;36499;46.484;13.832;2022-08-11T10:34:40;27.20;62.10
12470;DHT22;36499;46.484;13.832;2022-08-11T10:37:11;27.20;65.40
12470;DHT22;36499;46.484;13.832;2022-08-11T10:39:40;27.10;62.70
12470;DHT22;36499;46.484;13.832;2022-08-11T10:42:12;27.20;61.30
12470;DHT22;36499;46.484;13.832;2022-08-11T10:44:59;27.20;60.60
12470;DHT22;36499;46.484;13.832;2022-08-11T10:47:50;27.20;61.40
12470;DHT22;36499;46.484;13.832;2022-08-11T10:50:17;27.30;59.60
12470;DHT22;36499;46.484;13.832;2022-08-11T10:53:03;27.20;60.40
12470;DHT22;36499;46.484;13.832;2022-08-11T10:55:48;27.00;61.80
12470;DHT22;36499;46.484;13.832;2022-08-11T10:58:36;26.70;65.50
12470;DHT22;36499;46.484;13.832;2022-08-11T11:01:14;26.70;63.50
12470;DHT22;36499;46.484;13.832;2022-08-11T11:03:44;26.40;61.10
12470;DHT22;36499;46.484;13.832;2022-08-11T11:06:22;26.00;67.40
12470;DHT22;36499;46.484;13.832;2022-08-11T11:08:58;26.00;68.40
12470;DHT22;36499;46.484;13.832;2022-08-11T11:11:34;26.30;68.50
12470;DHT22;36499;46.484;13.832;2022-08-11T11:14:27;26.70;67.80
12470;DHT22;36499;46.484;13.832;2022-08-11T11:17:14;26.90;65.60
12470;DHT22;36499;46.484;13.832;2022-08-11T11:20:07;26.90;64.90
12470;DHT22;36499;46.484;13.832;2022-08-11T11:22:36;26.70;64.30
12470;DHT22;36499;46.484;13.832;2022-08-11T11:25:10;26.40;65.60
12470;DHT22;36499;46.484;13.832;2022-08-11T11:28:11;26.00;63.20
12470;DHT22;36499;46.484;13.832;2022-08-11T11:31:05;25.80;66.40
12470;DHT22;36499;46.484;13.832;2022-08-11T11:33:57;25.80;67.50
12470;DHT22;36499;46.484;13.832;2022-08-11T11:36:44;26.00;65.60
12470;DHT22;36499;46.484;13.832;2022-08-11T11:39:17;26.20;66.10
12470;DHT22;36499;46.484;13.832;2022-08-11T11:41:47;26.40;65.20
12470;DHT22;36499;46.484;13.832;2022-08-11T11:44:15;26.60;65.00
12470;DHT22;36499;46.484;13.832;2022-08-11T11:46:44;26.70;65.60
12470;DHT22;36499;46.484;13.832;2022-08-11T11:49:13;26.70;65.60
12470;DHT22;36499;46.484;13.832;2022-08-11T11:51:45;27.00;62.20
12470;DHT22;36499;46.484;13.832;2022-08-11T11:54:14;27.10;59.60
12470;DHT22;36499;46.484;13.832;2022-08-11T11:56:43;27.00;60.00
12470;DHT22;36499;46.484;13.832;2022-08-11T11:59:11;26.90;59.30
12470;DHT22;36499;46.484;13.832;2022-08-11T12:02:00;26.70;59.00
12470;DHT22;36499;46.484;13.832;2022-08-11T12:04:28;26.50;58.30
12470;DHT22;36499;46.484;13.832;2022-08-11T12:06:57;26.60;61.70
12470;DHT22;36499;46.484;13.832;2022-08-11T12:09:38;26.80;61.40
12470;DHT22;36499;46.484;13.832;2022-08-11T12:12:07;27.20;62.20
12470;DHT22;36499;46.484;13.832;2022-08-11T12:14:52;27.40;61.90
12470;DHT22;36499;46.484;13.832;2022-08-11T12:17:22;27.70;59.70
12470;DHT22;36499;46.484;13.832;2022-08-11T12:19:51;27.80;60.60
12470;DHT22;36499;46.484;13.832;2022-08-11T12:22:19;28.00;62.70
12470;DHT22;36499;46.484;13.832;2022-08-11T12:25:04;28.20;62.40
12470;DHT22;36499;46.484;13.832;2022-08-11T12:27:52;28.40;60.40
12470;DHT22;36499;46.484;13.832;2022-08-11T12:30:20;28.50;63.30
12470;DHT22;36499;46.484;13.832;2022-08-11T12:32:49;28.70;61.20
12470;DHT22;36499;46.484;13.832;2022-08-11T12:35:18;28.70;60.20
12470;DHT22;36499;46.484;13.832;2022-08-11T12:37:49;28.80;57.80
12470;DHT22;36499;46.484;13.832;2022-08-11T12:40:24;28.80;57.60
12470;DHT22;36499;46.484;13.832;2022-08-11T12:43:15;28.70;57.70
12470;DHT22;36499;46.484;13.832;2022-08-11T12:46:08;28.80;58.90
12470;DHT22;36499;46.484;13.832;2022-08-11T12:48:45;28.70;56.10
12470;DHT22;36499;46.484;13.832;2022-08-11T12:51:41;28.60;57.30
12470;DHT22;36499;46.484;13.832;2022-08-11T12:54:26;28.30;56.90
12470;DHT22;36499;46.484;13.832;2022-08-11T12:57:00;28.10;61.50
12470;DHT22;36499;46.484;13.832;2022-08-11T12:59:49;28.20;57.40
12470;DHT22;36499;46.484;13.832;2022-08-11T13:02:35;28.40;58.10
12470;DHT22;36499;46.484;13.832;2022-08-11T13:05:22;28.60;58.60
12470;DHT22;36499;46.484;13.832;2022-08-11T13:07:49;28.70;56.00
12470;DHT22;36499;46.484;13.832;2022-08-11T13:10:19;28.30;55.70
12470;DHT22;36499;46.484;13.832;2022-08-11T13:13:02;28.20;57.90
12470;DHT22;36499;46.484;13.832;2022-08-11T13:15:30;28.40;56.70
12470;DHT22;36499;46.484;13.832;2022-08-11T13:17:58;28.40;57.30
12470;DHT22;36499;46.484;13.832;2022-08-11T13:20:29;28.60;56.10
12470;DHT22;36499;46.484;13.832;2022-08-11T13:22:58;28.80;56.20
12470;DHT22;36499;46.484;13.832;2022-08-11T13:25:29;28.80;55.80
12470;DHT22;36499;46.484;13.832;2022-08-11T13:27:59;29.00;56.90
12470;DHT22;36499;46.484;13.832;2022-08-11T13:30:30;29.10;56.40
12470;DHT22;36499;46.484;13.832;2022-08-11T13:33:17;29.30;56.60
12470;DHT22;36499;46.484;13.832;2022-08-11T13:35:47;29.30;55.80
12470;DHT22;36499;46.484;13.832;2022-08-11T13:38:19;29.30;52.30
12470;DHT22;36499;46.484;13.832;2022-08-11T13:40:48;29.20;52.80
12470;DHT22;36499;46.484;13.832;2022-08-11T13:43:19;29.20;54.00
12470;DHT22;36499;46.484;13.832;2022-08-11T13:45:48;29.30;56.70
12470;DHT22;36499;46.484;13.832;2022-08-11T13:48:37;29.30;53.90
12470;DHT22;36499;46.484;13.832;2022-08-11T13:51:09;29.20;54.00
12470;DHT22;36499;46.484;13.832;2022-08-11T13:53:55;29.30;56.30
12470;DHT22;36499;46.484;13.832;2022-08-11T13:56:25;29.30;55.40
12470;DHT22;36499;46.484;13.832;2022-08-11T13:58:54;29.20;53.90
12470;DHT22;36499;46.484;13.832;2022-08-11T14:01:25;29.20;53.60
12470;DHT22;36499;46.484;13.832;2022-08-11T14:03:54;29.30;55.40
12470;DHT22;36499;46.484;13.832;2022-08-11T14:06:30;29.40;52.60
12470;DHT22;36499;46.484;13.832;2022-08-11T14:08:59;29.50;56.50
12470;DHT22;36499;46.484;13.832;2022-08-11T14:11:29;29.70;54.60
12470;DHT22;36499;46.484;13.832;2022-08-11T14:14:24;29.70;54.60
12470;DHT22;36499;46.484;13.832;2022-08-11T14:16:55;29.70;55.00
12470;DHT22;36499;46.484;13.832;2022-08-11T14:19:24;29.80;53.10
12470;DHT22;36499;46.484;13.832;2022-08-11T14:21:55;29.70;53.50
12470;DHT22;36499;46.484;13.832;2022-08-11T14:24:32;29.80;52.90
12470;DHT22;36499;46.484;13.832;2022-08-11T14:27:01;29.80;51.70
12470;DHT22;36499;46.484;13.832;2022-08-11T14:29:29;29.70;51.10
12470;DHT22;36499;46.484;13.832;2022-08-11T14:32:02;29.80;52.40
12470;DHT22;36499;46.484;13.832;2022-08-11T14:34:30;29.70;50.50
12470;DHT22;36499;46.484;13.832;2022-08-11T14:37:04;29.80;51.90
12470;DHT22;36499;46.484;13.832;2022-08-11T14:39:40;29.70;52.00
12470;DHT22;36499;46.484;13.832;2022-08-11T14:42:13;29.70;50.90
12470;DHT22;36499;46.484;13.832;2022-08-11T14:45:02;29.70;51.70
12470;DHT22;36499;46.484;13.832;2022-08-11T14:47:56;29.60;51.10
12470;DHT22;36499;46.484;13.832;2022-08-11T14:50:28;29.60;51.90
12470;DHT22;36499;46.484;13.832;2022-08-11T14:53:00;29.70;53.20
12470;DHT22;36499;46.484;13.832;2022-08-11T14:55:35;29.70;54.10
12470;DHT22;36499;46.484;13.832;2022-08-11T14:58:23;29.80;52.20
12470;DHT22;36499;46.484;13.832;2022-08-11T15:00:54;30.00;51.10
12470;DHT22;36499;46.484;13.832;2022-08-11T15:03:24;29.90;51.50
12470;DHT22;36499;46.484;13.832;2022-08-11T15:05:54;29.90;52.30
12470;DHT22;36499;46.484;13.832;2022-08-11T15:08:28;29.90;48.70
12470;DHT22;36499;46.484;13.832;2022-08-11T15:11:15;29.80;51.40
12470;DHT22;36499;46.484;13.832;2022-08-11T15:14:05;29.80;53.40
12470;DHT22;36499;46.484;13.832;2022-08-11T15:16:35;29.80;51.20
12470;DHT22;36499;46.484;13.832;2022-08-11T15:19:24;29.90;52.80
12470;DHT22;36499;46.484;13.832;2022-08-11T15:21:58;29.90;51.10
12470;DHT22;36499;46.484;13.832;2022-08-11T15:24:44;30.00;51.90
12470;DHT22;36499;46.484;13.832;2022-08-11T15:27:13;30.00;51.30
12470;DHT22;36499;46.484;13.832;2022-08-11T15:30:04;30.00;51.40
12470;DHT22;36499;46.484;13.832;2022-08-11T15:32:50;30.00;50.30
12470;DHT22;36499;46.484;13.832;2022-08-11T15:35:38;30.00;51.70
12470;DHT22;36499;46.484;13.832;2022-08-11T15:38:24;29.70;51.60
12470;DHT22;36499;46.484;13.832;2022-08-11T15:40:56;29.30;51.80
12470;DHT22;36499;46.484;13.832;2022-08-11T15:43:47;29.00;51.60
12470;DHT22;36499;46.484;13.832;2022-08-11T15:46:39;28.80;52.90
12470;DHT22;36499;46.484;13.832;2022-08-11T15:49:12;28.50;52.30
12470;DHT22;36499;46.484;13.832;2022-08-11T15:51:47;28.20;53.60
12470;DHT22;36499;46.484;13.832;2022-08-11T15:54:24;27.70;54.10
12470;DHT22;36499;46.484;13.832;2022-08-11T15:56:58;27.40;54.10
12470;DHT22;36499;46.484;13.832;2022-08-11T15:59:30;27.10;55.90
12470;DHT22;36499;46.484;13.832;2022-08-11T16:02:20;26.90;56.40
12470;DHT22;36499;46.484;13.832;2022-08-11T16:05:11;26.70;57.90
12470;DHT22;36499;46.484;13.832;2022-08-11T16:07:43;26.60;57.70
12470;DHT22;36499;46.484;13.832;2022-08-11T16:10:15;26.40;61.00
12470;DHT22;36499;46.484;13.832;2022-08-11T16:12:50;26.40;60.90
12470;DHT22;36499;46.484;13.832;2022-08-11T16:15:46;26.30;63.20
12470;DHT22;36499;46.484;13.832;2022-08-11T16:18:37;25.90;64.50
12470;DHT22;36499;46.484;13.832;2022-08-11T16:21:11;25.60;62.30
12470;DHT22;36499;46.484;13.832;2022-08-11T16:23:45;25.60;65.30
12470;DHT22;36499;46.484;13.832;2022-08-11T16:26:16;25.40;64.90
12470;DHT22;36499;46.484;13.832;2022-08-11T16:28:49;25.40;64.90
12470;DHT22;36499;46.484;13.832;2022-08-11T16:31:20;25.20;65.90
12470;DHT22;36499;46.484;13.832;2022-08-11T16:33:49;25.10;68.50
12470;DHT22;36499;46.484;13.832;2022-08-11T16:36:19;24.90;68.80
12470;DHT22;36499;46.484;13.832;2022-08-11T16:39:07;24.80;66.10
12470;DHT22;36499;46.484;13.832;2022-08-11T16:41:38;24.90;66.10
12470;DHT22;36499;46.484;13.832;2022-08-11T16:44:24;25.20;66.00
12470;DHT22;36499;46.484;13.832;2022-08-11T16:47:14;25.40;66.00
12470;DHT22;36499;46.484;13.832;2022-08-11T16:49:46;25.70;65.20
12470;DHT22;36499;46.484;13.832;2022-08-11T16:52:17;25.80;63.50
12470;DHT22;36499;46.484;13.832;2022-08-11T16:54:44;25.70;64.50
12470;DHT22;36499;46.484;13.832;2022-08-11T16:57:16;25.60;66.40
12470;DHT22;36499;46.484;13.832;2022-08-11T17:00:07;25.70;65.70
12470;DHT22;36499;46.484;13.832;2022-08-11T17:02:41;25.40;65.20
12470;DHT22;36499;46.484;13.832;2022-08-11T17:05:42;25.50;65.90
12470;DHT22;36499;46.484;13.832;2022-08-11T17:08:35;25.50;68.10
12470;DHT22;36499;46.484;13.832;2022-08-11T17:11:23;25.50;66.70
12470;DHT22;36499;46.484;13.832;2022-08-11T17:14:13;25.50;67.70
12470;DHT22;36499;46.484;13.832;2022-08-11T17:16:45;25.40;67.90
12470;DHT22;36499;46.484;13.832;2022-08-11T17:19:20;25.10;68.40
12470;DHT22;36499;46.484;13.832;2022-08-11T17:21:51;25.00;67.10
12470;DHT22;36499;46.484;13.832;2022-08-11T17:24:40;24.60;69.00
12470;DHT22;36499;46.484;13.832;2022-08-11T17:27:12;24.50;70.10
12470;DHT22;36499;46.484;13.832;2022-08-11T17:29:45;24.20;67.70
12470;DHT22;36499;46.484;13.832;2022-08-11T17:32:18;23.90;65.60
12470;DHT22;36499;46.484;13.832;2022-08-11T17:35:09;23.70;66.90
12470;DHT22;36499;46.484;13.832;2022-08-11T17:38:00;23.50;68.30
12470;DHT22;36499;46.484;13.832;2022-08-11T17:40:33;23.20;70.80
12470;DHT22;36499;46.484;13.832;2022-08-11T17:43:06;23.00;70.50
12470;DHT22;36499;46.484;13.832;2022-08-11T17:46:06;22.90;69.30